KMCO

Orlando International Airport

Orlando, Florida, USA
METAR KMCO 201553Z 00000KT 10SM SCT035 SCT280 31/22 A3013 RMK AO2 SLP201 T03060222
Observed Flight Rules
Aug-20 @ 15:53 UTC (30 minutes ago) Visual Flight Rules
Visibility Clouds
10 miles
  • Scattered at 3,500' AGL
  • Scattered at 28,000' AGL
Temperatures Readings
Current 31°C / 88°F
Dewpoint 22°C / 72°F
Humidity 59%
Altimeter 30.13" Hg
Pressure 1020.1 hPa
Elevation 29
METAR KMCO 201553Z 00000KT 10SM SCT035 SCT280 31/22 A3013 RMK AO2 SLP201 T03060222
Observed Flight Rules
Aug-20 @ 15:53 UTC
(30 minutes ago)
VFR
Clouds
  • Scattered at 3,500' AGL
  • Scattered at 28,000' AGL
Temperature Dewpoint
31°C / 88°F 22°C / 72°F
Humidity Altimeter Pressure
59% 30.13" Hg 1020.1 hPa